Time;durP1;ratioP1;P1;durP2;ratioP2;P2;SDS_P1;SDS_P2;PMS_P1;PMS_P2;Temp;Humidity;BMP_temperature;BMP_pressure;BME280_temperature;BME280_humidity;BME280_pressure;Samples;Min_cycle;Max_cycle;Signal;HPM_P1;HPM_P2
2022/04/28 00:00:36;;;;;;;15.98;8.55;;;2.20;99.90;;;;;;4975277;28;20057;-73
2022/04/28 00:03:04;;;;;;;14.75;8.13;;;2.00;99.90;;;;;;4956127;28;20223;-73
2022/04/28 00:05:30;;;;;;;17.35;9.40;;;2.00;99.90;;;;;;4956226;28;20038;-73
2022/04/28 00:07:56;;;;;;;14.45;9.32;;;2.00;99.90;;;;;;4969358;28;20041;-73
2022/04/28 00:10:22;;;;;;;14.52;8.95;;;2.00;99.90;;;;;;4974554;28;20058;-73
2022/04/28 00:12:47;;;;;;;18.58;9.05;;;1.90;99.90;;;;;;4991370;28;20034;-73
2022/04/28 00:15:13;;;;;;;13.75;8.77;;;1.90;99.90;;;;;;4971116;28;20104;-74
2022/04/28 00:17:39;;;;;;;18.48;9.60;;;1.90;99.90;;;;;;4973902;28;20052;-73
2022/04/28 00:20:06;;;;;;;14.15;9.35;;;1.80;99.90;;;;;;4991495;28;20042;-73
2022/04/28 00:22:32;;;;;;;21.52;9.20;;;1.80;99.90;;;;;;4966441;28;20050;-75
2022/04/28 00:24:57;;;;;;;17.35;10.30;;;1.90;99.90;;;;;;4974254;28;20042;-75
2022/04/28 00:27:23;;;;;;;13.52;9.27;;;1.80;99.90;;;;;;4974801;28;20038;-75
2022/04/28 00:29:49;;;;;;;18.45;9.52;;;1.80;99.90;;;;;;4991173;28;20041;-75
2022/04/28 00:32:14;;;;;;;14.73;8.95;;;1.80;99.90;;;;;;4987010;28;20038;-74
2022/04/28 00:34:41;;;;;;;17.30;9.70;;;1.70;99.90;;;;;;4971919;28;20034;-75
2022/04/28 00:37:10;;;;;;;17.77;9.68;;;1.80;99.90;;;;;;4974184;28;20046;-74
2022/04/28 00:39:37;;;;;;;15.00;10.23;;;1.70;99.90;;;;;;4957228;28;20105;-75
2022/04/28 00:42:08;;;;;;;15.18;9.32;;;1.70;99.90;;;;;;4971391;28;20512;-74
2022/04/28 00:44:34;;;;;;;13.20;8.75;;;1.70;99.90;;;;;;4970295;28;20137;-74
2022/04/28 00:46:59;;;;;;;13.20;8.77;;;1.70;99.90;;;;;;4967445;28;20121;-75
2022/04/28 00:52:09;;;;;;;17.67;9.25;;;1.60;99.90;;;;;;4977362;28;20174;-75
2022/04/28 00:54:35;;;;;;;16.33;10.30;;;1.50;99.90;;;;;;4974133;28;20038;-75
2022/04/28 00:57:02;;;;;;;16.23;9.20;;;1.50;99.90;;;;;;4986855;28;20047;-75
2022/04/28 00:59:29;;;;;;;15.60;9.80;;;1.50;99.90;;;;;;4974523;28;20038;-75
2022/04/28 01:01:55;;;;;;;13.82;8.35;;;1.50;99.90;;;;;;4972818;28;20078;-74
2022/04/28 01:04:20;;;;;;;12.60;8.57;;;1.40;99.90;;;;;;4982836;28;20077;-75
2022/04/28 01:06:46;;;;;;;11.55;8.38;;;1.40;99.90;;;;;;4977027;28;20046;-74
2022/04/28 01:09:14;;;;;;;13.38;8.60;;;1.40;99.90;;;;;;4977381;28;20448;-75
2022/04/28 01:11:45;;;;;;;15.57;9.75;;;1.30;99.90;;;;;;4987429;28;20119;-75
2022/04/28 01:14:13;;;;;;;18.88;9.52;;;1.30;99.90;;;;;;4977822;28;20484;-74
2022/04/28 01:16:39;;;;;;;19.20;9.93;;;1.30;99.90;;;;;;4976429;28;20046;-74
2022/04/28 01:19:05;;;;;;;18.80;10.43;;;1.30;99.90;;;;;;4965302;28;20375;-74
2022/04/28 01:21:30;;;;;;;21.33;10.80;;;1.30;99.90;;;;;;4974562;28;20046;-75
2022/04/28 01:23:56;;;;;;;18.70;10.93;;;1.20;99.90;;;;;;4966200;28;20043;-74
2022/04/28 01:26:24;;;;;;;20.52;10.18;;;1.20;99.90;;;;;;4959155;28;20034;-75
2022/04/28 01:28:52;;;;;;;21.25;10.98;;;1.30;99.90;;;;;;4959202;28;20047;-75
2022/04/28 01:31:21;;;;;;;16.38;10.27;;;1.30;99.90;;;;;;4990030;28;20041;-75
2022/04/28 01:33:49;;;;;;;17.85;9.50;;;1.30;99.90;;;;;;4978039;28;20518;-74
2022/04/28 01:36:14;;;;;;;18.73;9.68;;;1.30;99.90;;;;;;4977887;28;20042;-74
2022/04/28 01:38:40;;;;;;;16.02;9.10;;;1.30;99.90;;;;;;4978117;28;20053;-75
2022/04/28 01:41:05;;;;;;;16.25;9.43;;;1.30;99.90;;;;;;4977325;28;20043;-74
2022/04/28 01:43:31;;;;;;;20.30;9.35;;;1.20;99.90;;;;;;4991860;28;20777;-75
2022/04/28 01:46:01;;;;;;;19.75;9.93;;;1.20;99.90;;;;;;4978416;28;20038;-75
2022/04/28 01:48:29;;;;;;;13.45;9.85;;;1.20;99.90;;;;;;4977077;28;20042;-75
2022/04/28 01:56:23;;;;;;;14.57;9.20;;;1.10;99.90;;;;;;4993414;28;20143;-75
2022/04/28 01:58:49;;;;;;;16.55;10.02;;;1.10;99.90;;;;;;4985773;28;20494;-75
2022/04/28 02:01:15;;;;;;;15.88;9.23;;;1.10;99.90;;;;;;4972952;28;20050;-75
2022/04/28 02:03:40;;;;;;;17.60;9.98;;;1.00;99.90;;;;;;4989953;28;20042;-74
2022/04/28 02:06:06;;;;;;;15.57;9.70;;;1.00;99.90;;;;;;4964388;28;20069;-75
2022/04/28 02:08:32;;;;;;;17.27;9.75;;;1.00;99.90;;;;;;4974740;28;20052;-74
2022/04/28 02:11:00;;;;;;;16.25;9.45;;;0.90;99.90;;;;;;4988815;28;20039;-74
2022/04/28 02:13:25;;;;;;;12.52;8.85;;;1.00;99.90;;;;;;5008526;28;20125;-74
2022/04/28 02:15:51;;;;;;;14.13;9.10;;;0.90;99.90;;;;;;4985219;28;20457;-74
2022/04/28 02:18:17;;;;;;;17.35;9.77;;;0.90;99.90;;;;;;4984711;28;20046;-74
2022/04/28 02:20:43;;;;;;;17.63;10.43;;;0.90;99.90;;;;;;4968872;28;20042;-75
2022/04/28 02:23:10;;;;;;;16.70;10.10;;;0.90;99.90;;;;;;4977201;28;20488;-75
2022/04/28 02:25:36;;;;;;;18.13;9.60;;;1.00;99.90;;;;;;4989654;28;20072;-74
2022/04/28 02:28:02;;;;;;;14.05;9.13;;;1.00;99.90;;;;;;4976689;28;20066;-74
2022/04/28 02:30:27;;;;;;;15.73;9.45;;;1.00;99.90;;;;;;4977013;28;20041;-74
2022/04/28 02:35:48;;;;;;;15.88;9.35;;;0.90;99.90;;;;;;4975910;28;20070;-74
2022/04/28 02:38:13;;;;;;;15.27;9.95;;;0.90;99.90;;;;;;4976674;28;20074;-75
2022/04/28 02:40:39;;;;;;;15.75;9.60;;;0.90;99.90;;;;;;4977179;28;20049;-75
2022/04/28 02:43:05;;;;;;;15.95;9.85;;;0.90;99.90;;;;;;4970093;28;20042;-75
2022/04/28 02:45:31;;;;;;;18.58;10.93;;;0.90;99.90;;;;;;4975423;28;20053;-74
2022/04/28 02:47:56;;;;;;;20.33;9.90;;;0.80;99.90;;;;;;4969624;28;20132;-74
2022/04/28 02:50:22;;;;;;;18.95;10.27;;;0.90;99.90;;;;;;4976852;28;20397;-75
2022/04/28 02:52:51;;;;;;;19.35;11.43;;;0.90;99.90;;;;;;4977312;28;20053;-75
2022/04/28 02:55:17;;;;;;;18.52;12.05;;;0.90;99.90;;;;;;4976003;28;20046;-75
2022/04/28 02:57:43;;;;;;;19.70;10.35;;;1.00;99.90;;;;;;4983631;28;20641;-75
2022/04/28 03:00:09;;;;;;;16.83;11.13;;;1.10;99.90;;;;;;4976855;28;20042;-75
2022/04/28 03:02:35;;;;;;;19.33;10.77;;;1.20;99.90;;;;;;4974631;28;20088;-75
2022/04/28 03:05:04;;;;;;;19.00;11.52;;;1.30;99.90;;;;;;4985193;28;20065;-75
2022/04/28 03:13:02;;;;;;;20.40;11.57;;;1.60;99.90;;;;;;4988477;28;20109;-75
2022/04/28 03:15:28;;;;;;;21.38;11.23;;;1.70;99.90;;;;;;4973601;28;20042;-75
2022/04/28 03:17:53;;;;;;;18.20;11.00;;;1.80;99.90;;;;;;4969284;28;20421;-75
2022/04/28 03:20:19;;;;;;;20.65;11.35;;;1.90;99.90;;;;;;4980015;28;20672;-75
2022/04/28 03:22:45;;;;;;;20.35;10.52;;;2.00;99.90;;;;;;4967929;28;20039;-75
2022/04/28 03:25:11;;;;;;;20.27;11.32;;;2.00;99.90;;;;;;4974643;28;20225;-75
2022/04/28 03:27:37;;;;;;;21.65;11.95;;;2.10;99.90;;;;;;4974619;28;20087;-75
2022/04/28 03:30:04;;;;;;;21.75;12.40;;;2.10;99.90;;;;;;4980158;28;20034;-75
2022/04/28 03:32:30;;;;;;;16.58;11.35;;;2.20;99.90;;;;;;4990951;28;20038;-75
2022/04/28 03:34:55;;;;;;;23.02;12.00;;;2.30;99.90;;;;;;4968548;28;20126;-75
2022/04/28 03:37:23;;;;;;;22.83;10.77;;;2.40;99.90;;;;;;4991321;28;20133;-76
2022/04/28 03:39:52;;;;;;;21.27;11.13;;;2.40;99.90;;;;;;4980703;28;20038;-75
2022/04/28 03:42:17;;;;;;;17.80;10.40;;;2.50;99.90;;;;;;4980226;28;20435;-75
2022/04/28 03:44:43;;;;;;;17.60;10.75;;;2.60;99.90;;;;;;4966844;28;20038;-75
2022/04/28 03:47:09;;;;;;;17.85;10.13;;;2.60;99.90;;;;;;4961143;28;20413;-76
2022/04/28 03:49:34;;;;;;;19.35;11.10;;;2.70;99.90;;;;;;4982215;28;20054;-75
2022/04/28 03:52:02;;;;;;;16.92;9.80;;;2.70;99.90;;;;;;4977416;28;20508;-75
2022/04/28 03:54:28;;;;;;;16.65;9.48;;;2.70;99.90;;;;;;4985021;28;20548;-75
2022/04/28 03:56:54;;;;;;;19.85;11.50;;;2.80;99.90;;;;;;4967039;28;20050;-75
2022/04/28 03:59:19;;;;;;;16.55;10.88;;;2.80;99.90;;;;;;4976540;28;20548;-75
2022/04/28 04:01:45;;;;;;;17.90;10.68;;;2.90;99.90;;;;;;4976115;28;20147;-76
2022/04/28 04:04:11;;;;;;;19.92;11.07;;;2.90;99.90;;;;;;4967184;28;20049;-75
2022/04/28 04:06:36;;;;;;;20.55;10.95;;;3.00;99.90;;;;;;4974617;28;20041;-75
2022/04/28 04:09:02;;;;;;;19.98;11.20;;;3.10;99.90;;;;;;4974076;28;20041;-74
2022/04/28 04:11:28;;;;;;;17.77;11.00;;;3.20;99.90;;;;;;4974688;28;20043;-75
2022/04/28 04:13:53;;;;;;;15.25;10.43;;;3.30;99.90;;;;;;4964060;28;20058;-76
2022/04/28 04:16:19;;;;;;;18.23;11.52;;;3.30;99.90;;;;;;4980075;28;20050;-75
2022/04/28 04:18:47;;;;;;;17.05;10.45;;;3.40;99.90;;;;;;4973259;28;20042;-75
2022/04/28 04:21:13;;;;;;;18.65;11.18;;;3.50;99.90;;;;;;4974404;28;20046;-75
2022/04/28 04:23:38;;;;;;;15.07;10.15;;;3.50;99.90;;;;;;4973562;28;20138;-75
2022/04/28 04:26:04;;;;;;;18.33;11.00;;;3.60;99.90;;;;;;4962426;28;20057;-75
2022/04/28 04:28:30;;;;;;;16.95;10.32;;;3.60;99.90;;;;;;4982424;28;20057;-75
2022/04/28 04:33:45;;;;;;;19.02;11.43;;;3.70;99.90;;;;;;4954321;28;20068;-75
2022/04/28 04:36:11;;;;;;;17.30;11.02;;;3.80;99.90;;;;;;4976365;28;20046;-75
2022/04/28 04:38:37;;;;;;;18.63;11.27;;;3.90;99.90;;;;;;4977974;28;20096;-77
2022/04/28 04:41:11;;;;;;;17.00;11.02;;;4.00;99.90;;;;;;4970810;28;20559;-74
2022/04/28 04:44:00;;;;;;;17.80;10.80;;;4.10;99.90;;;;;;4988037;28;20046;-73
2022/04/28 04:46:43;;;;;;;15.48;10.52;;;4.00;99.90;;;;;;4975073;28;20147;-73
2022/04/28 04:49:28;;;;;;;17.70;10.18;;;4.20;99.90;;;;;;4961765;28;20077;-73
2022/04/28 04:52:02;;;;;;;16.58;10.18;;;4.20;99.90;;;;;;4986956;28;20136;-76
2022/04/28 04:54:30;;;;;;;16.63;10.40;;;4.30;99.90;;;;;;4995838;28;20042;-73
2022/04/28 04:56:56;;;;;;;13.82;9.60;;;4.40;99.90;;;;;;4981202;28;20076;-73
2022/04/28 04:59:22;;;;;;;12.20;9.40;;;4.50;99.90;;;;;;4973090;28;20074;-74
2022/04/28 05:01:47;;;;;;;17.35;10.43;;;4.60;99.90;;;;;;4988830;28;20039;-74
2022/04/28 05:04:14;;;;;;;14.68;9.77;;;4.70;99.90;;;;;;4965557;28;20051;-73
2022/04/28 05:06:49;;;;;;;16.17;10.73;;;4.80;99.90;;;;;;4990360;28;20121;-74
2022/04/28 05:09:21;;;;;;;13.52;9.80;;;4.90;99.90;;;;;;4983372;28;20042;-74
2022/04/28 05:11:51;;;;;;;15.68;10.25;;;4.90;99.90;;;;;;4967405;28;20369;-75
2022/04/28 05:14:26;;;;;;;13.80;9.93;;;5.00;99.90;;;;;;4975937;28;20050;-75
2022/04/28 05:16:58;;;;;;;13.55;10.02;;;5.00;99.90;;;;;;4967455;28;20050;-75
2022/04/28 05:19:32;;;;;;;14.80;10.55;;;5.20;99.90;;;;;;4968478;28;20651;-75
2022/04/28 05:22:00;;;;;;;14.02;9.95;;;5.20;99.90;;;;;;4978811;28;20038;-73
2022/04/28 05:24:45;;;;;;;13.55;10.82;;;5.30;99.90;;;;;;4970823;28;20046;-73
2022/04/28 05:27:38;;;;;;;;;;;;;;;;;;;;;
2022/04/28 05:30:30;;;;;;;13.90;10.70;;;5.50;99.90;;;;;;4954928;28;20051;-74
2022/04/28 05:33:12;;;;;;;15.10;10.73;;;5.60;99.90;;;;;;4956819;28;20039;-73
2022/04/28 05:35:44;;;;;;;16.20;10.77;;;5.70;99.90;;;;;;4943670;28;20424;-74
2022/04/28 05:38:32;;;;;;;20.88;11.50;;;5.90;99.90;;;;;;4984589;28;20529;-74
2022/04/28 05:41:21;;;;;;;16.88;10.63;;;6.00;99.90;;;;;;4971449;28;20035;-74
2022/04/28 05:47:21;;;;;;;15.75;10.05;;;6.10;99.90;;;;;;4972441;28;20047;-74
2022/04/28 05:49:56;;;;;;;13.70;10.45;;;6.30;99.90;;;;;;4972441;28;20047;-74
2022/04/28 05:52:53;;;;;;;17.33;9.98;;;6.40;99.90;;;;;;4974026;28;20049;-74
2022/04/28 05:55:41;;;;;;;;;;;;;;;;;;;;;
2022/04/28 05:58:19;;;;;;;19.75;10.18;;;6.70;99.90;;;;;;4979209;28;20396;-74
2022/04/28 06:01:00;;;;;;;17.70;9.98;;;6.90;99.90;;;;;;4983175;28;20042;-74
2022/04/28 06:03:29;;;;;;;17.02;9.93;;;7.00;99.90;;;;;;4990248;28;20042;-77
2022/04/28 06:06:02;;;;;;;13.68;8.70;;;7.10;99.90;;;;;;4977926;28;20046;-76
2022/04/28 06:08:30;;;;;;;20.88;10.30;;;7.20;99.90;;;;;;4977179;28;20485;-77
2022/04/28 06:10:58;;;;;;;15.85;10.35;;;7.20;99.90;;;;;;4982228;28;20049;-76
2022/04/28 06:13:24;;;;;;;14.95;9.75;;;7.40;99.90;;;;;;4958438;28;20035;-76
2022/04/28 06:15:59;;;;;;;11.85;8.23;;;7.50;99.90;;;;;;4984860;28;20456;-77
2022/04/28 06:18:28;;;;;;;13.50;9.30;;;7.60;99.90;;;;;;4974100;28;20074;-77
2022/04/28 06:20:54;;;;;;;15.25;9.13;;;7.70;99.90;;;;;;4977351;28;20455;-77
2022/04/28 06:23:23;;;;;;;11.98;8.60;;;7.80;99.90;;;;;;4992913;28;20049;-77
2022/04/28 06:25:51;;;;;;;13.25;8.27;;;7.90;99.90;;;;;;4977320;28;20496;-76
2022/04/28 06:28:23;;;;;;;13.68;8.73;;;8.00;99.90;;;;;;4976930;28;20416;-77
2022/04/28 06:30:49;;;;;;;13.25;8.77;;;8.00;99.90;;;;;;4974366;28;20042;-77
2022/04/28 06:33:19;;;;;;;18.70;8.95;;;8.20;99.90;;;;;;4957967;28;20465;-77
2022/04/28 06:35:48;;;;;;;11.75;7.65;;;8.30;99.90;;;;;;4973858;28;20047;-77
2022/04/28 06:38:20;;;;;;;11.73;7.03;;;8.40;99.90;;;;;;4974254;28;20055;-77
2022/04/28 06:40:57;;;;;;;15.48;7.55;;;8.50;99.90;;;;;;4966003;28;20038;-76
2022/04/28 06:43:33;;;;;;;12.10;6.47;;;8.70;99.90;;;;;;4972313;28;20582;-77
2022/04/28 06:46:13;;;;;;;9.77;5.80;;;8.80;99.90;;;;;;4985271;28;20046;-77
2022/04/28 06:48:42;;;;;;;10.35;5.68;;;8.90;99.90;;;;;;4977133;28;20090;-77
2022/04/28 06:51:11;;;;;;;8.40;5.82;;;9.00;99.90;;;;;;4977140;28;20156;-77
2022/04/28 06:53:38;;;;;;;7.10;5.15;;;9.10;99.90;;;;;;4966366;28;20121;-77
2022/04/28 06:56:13;;;;;;;9.95;5.30;;;9.30;99.90;;;;;;4957437;28;20051;-77
2022/04/28 06:58:39;;;;;;;10.02;4.97;;;9.40;99.90;;;;;;4957000;28;20145;-77
2022/04/28 07:01:07;;;;;;;10.40;5.22;;;9.50;99.90;;;;;;4956717;28;20125;-77
2022/04/28 07:03:40;;;;;;;13.20;4.80;;;9.50;99.90;;;;;;4957472;28;20066;-77
2022/04/28 07:06:12;;;;;;;10.82;4.38;;;9.60;99.90;;;;;;4961961;28;20105;-77
2022/04/28 07:08:49;;;;;;;10.13;5.22;;;9.60;99.90;;;;;;4975551;28;20046;-77
2022/04/28 07:11:16;;;;;;;8.02;4.82;;;9.60;99.90;;;;;;4984793;28;20054;-76
2022/04/28 07:13:57;;;;;;;14.20;5.03;;;9.70;99.90;;;;;;4976444;28;20049;-77
2022/04/28 07:16:34;;;;;;;8.20;4.65;;;9.70;99.90;;;;;;4976208;28;20037;-77
2022/04/28 07:19:06;;;;;;;8.20;4.93;;;9.80;99.90;;;;;;4969592;28;20042;-77
2022/04/28 07:21:34;;;;;;;13.00;5.20;;;9.90;99.90;;;;;;4976120;28;20074;-77
2022/04/28 07:24:15;;;;;;;11.18;5.50;;;9.90;99.90;;;;;;4992152;28;20050;-77
2022/04/28 07:26:50;;;;;;;9.98;4.72;;;10.00;99.90;;;;;;4976758;28;20050;-77
2022/04/28 07:29:22;;;;;;;10.93;4.95;;;10.10;99.90;;;;;;4977062;28;20382;-77
2022/04/28 07:32:01;;;;;;;7.53;4.35;;;10.10;99.90;;;;;;4975090;28;20128;-77
2022/04/28 07:34:37;;;;;;;;;;;;;;;;;;;;;
2022/04/28 07:37:13;;;;;;;7.75;4.45;;;10.00;99.90;;;;;;4992189;28;20128;-77
2022/04/28 07:40:09;;;;;;;10.68;5.65;;;10.00;99.90;;;;;;4976333;28;20125;-76
2022/04/28 07:42:46;;;;;;;9.20;4.82;;;10.00;99.90;;;;;;4976050;28;20404;-77
2022/04/28 07:45:41;;;;;;;10.90;5.60;;;10.10;99.90;;;;;;4976021;28;20069;-77
2022/04/28 07:48:25;;;;;;;9.48;5.43;;;10.10;99.90;;;;;;4987770;28;20057;-77
2022/04/28 07:51:00;;;;;;;8.20;4.80;;;10.10;99.90;;;;;;4957039;28;20124;-77
2022/04/28 07:53:33;;;;;;;9.32;4.50;;;10.20;99.90;;;;;;4972226;28;20445;-77
2022/04/28 07:56:20;;;;;;;12.70;5.28;;;10.30;99.90;;;;;;4974876;28;20161;-77
2022/04/28 07:58:50;;;;;;;12.02;5.78;;;10.30;99.90;;;;;;4980367;28;20129;-77
2022/04/28 08:01:24;;;;;;;8.15;5.13;;;10.50;99.90;;;;;;4981873;28;20049;-77
2022/04/28 08:04:01;;;;;;;6.10;4.50;;;10.60;99.90;;;;;;4956274;28;20039;-77
2022/04/28 08:06:30;;;;;;;9.63;4.38;;;10.80;99.90;;;;;;4956252;28;20409;-77
2022/04/28 08:09:01;;;;;;;8.93;4.68;;;10.80;99.90;;;;;;4972558;28;20584;-77
2022/04/28 08:11:39;;;;;;;10.77;5.10;;;10.90;99.90;;;;;;4971394;28;20035;-77
2022/04/28 08:14:25;;;;;;;8.95;4.50;;;11.10;99.90;;;;;;4985036;28;20046;-77
2022/04/28 08:17:00;;;;;;;10.80;4.45;;;11.50;99.90;;;;;;4991447;28;20050;-77
2022/04/28 08:19:43;;;;;;;8.70;4.45;;;11.70;99.90;;;;;;4975222;28;20046;-77
2022/04/28 08:22:29;;;;;;;10.50;5.10;;;11.80;99.90;;;;;;4975562;28;20073;-77
2022/04/28 08:25:09;;;;;;;9.18;4.63;;;11.80;99.90;;;;;;4974909;28;20186;-77
2022/04/28 08:27:52;;;;;;;7.32;4.55;;;11.70;99.90;;;;;;4967723;28;20501;-77
2022/04/28 08:30:21;;;;;;;8.15;4.78;;;11.90;99.90;;;;;;4975000;28;20080;-77
2022/04/28 08:33:15;;;;;;;9.88;4.70;;;12.10;99.90;;;;;;4974721;28;20042;-77
2022/04/28 08:35:44;;;;;;;8.32;4.53;;;12.10;99.90;;;;;;4991157;28;20488;-77
2022/04/28 08:38:17;;;;;;;9.88;5.47;;;12.20;99.90;;;;;;4990540;28;20415;-77
2022/04/28 08:41:05;;;;;;;;;;;;;;;;;;;;;
2022/04/28 08:43:37;;;;;;;9.15;4.70;;;11.80;99.90;;;;;;4971893;28;20046;-77
2022/04/28 08:48:52;;;;;;;10.90;5.47;;;11.20;99.90;;;;;;4975562;28;20047;-77
2022/04/28 08:51:19;;;;;;;10.82;5.65;;;11.20;99.90;;;;;;4970473;28;20037;-77
2022/04/28 08:53:57;;;;;;;8.95;5.88;;;11.10;99.90;;;;;;4975745;28;20038;-76
2022/04/28 08:56:29;;;;;;;7.55;5.13;;;11.10;99.90;;;;;;4975127;28;20082;-76
2022/04/28 08:58:58;;;;;;;8.57;4.65;;;11.10;99.90;;;;;;4974876;28;20498;-77
2022/04/28 09:01:25;;;;;;;8.57;4.95;;;11.10;99.90;;;;;;4991424;28;20101;-75
2022/04/28 09:03:51;;;;;;;8.23;4.70;;;11.20;99.90;;;;;;4966988;28;20034;-75
2022/04/28 09:06:30;;;;;;;9.95;5.20;;;11.20;99.90;;;;;;4966937;28;20489;-75
2022/04/28 09:09:09;;;;;;;7.88;4.43;;;11.30;99.90;;;;;;4974810;28;20500;-75
2022/04/28 09:11:39;;;;;;;8.35;4.95;;;11.50;99.90;;;;;;4990874;28;20046;-75
2022/04/28 09:14:14;;;;;;;10.63;5.03;;;11.60;99.90;;;;;;4990508;28;20082;-75
2022/04/28 09:16:44;;;;;;;6.65;4.60;;;11.50;99.90;;;;;;4973751;28;20042;-76
2022/04/28 09:19:19;;;;;;;8.70;4.63;;;11.60;99.90;;;;;;4982442;28;20050;-76
2022/04/28 09:21:56;;;;;;;7.43;3.97;;;11.60;99.90;;;;;;4974622;28;20043;-76
2022/04/28 09:24:28;;;;;;;8.73;4.25;;;11.60;99.90;;;;;;4976536;28;20038;-76
2022/04/28 09:26:58;;;;;;;7.35;4.13;;;11.60;99.90;;;;;;4978490;28;20090;-76
2022/04/28 09:29:39;;;;;;;10.52;4.20;;;11.60;99.90;;;;;;4978113;28;20038;-76
2022/04/28 09:32:12;;;;;;;10.98;4.18;;;11.70;99.90;;;;;;4964464;28;20105;-76
2022/04/28 09:35:07;;;;;;;6.10;3.88;;;11.90;99.90;;;;;;4994114;28;20054;-76
2022/04/28 09:37:56;;;;;;;7.90;3.75;;;12.20;99.90;;;;;;4978564;28;20049;-76
2022/04/28 09:43:12;;;;;;;5.40;3.03;;;12.70;99.90;;;;;;4976826;28;20054;-76
2022/04/28 09:45:44;;;;;;;5.95;3.80;;;12.80;99.20;;;;;;4976153;28;20093;-76
2022/04/28 09:48:27;;;;;;;7.85;3.45;;;12.80;99.90;;;;;;4958882;28;20108;-76
2022/04/28 09:51:04;;;;;;;7.35;3.90;;;13.00;99.90;;;;;;4958818;28;20035;-76
2022/04/28 09:53:43;;;;;;;6.97;3.53;;;13.60;99.90;;;;;;4967559;28;20039;-76
2022/04/28 09:56:40;;;;;;;;;;;;;;;;;;;;;
2022/04/28 09:59:11;;;;;;;6.72;3.20;;;14.50;99.90;;;;;;4993970;28;20042;-76
2022/04/28 10:01:44;;;;;;;6.63;2.92;;;14.80;99.90;;;;;;4977846;28;20053;-76
2022/04/28 10:04:18;;;;;;;7.85;3.20;;;14.80;98.80;;;;;;4978013;28;20049;-76
2022/04/28 10:06:52;;;;;;;7.38;3.08;;;14.60;94.70;;;;;;4976750;28;20056;-76
2022/04/28 10:09:25;;;;;;;6.80;2.88;;;14.40;95.50;;;;;;4985652;28;20046;-77
2022/04/28 10:12:00;;;;;;;9.15;3.42;;;14.30;95.60;;;;;;4974780;28;20038;-76
2022/04/28 10:14:33;;;;;;;8.23;3.40;;;14.50;84.50;;;;;;4974307;28;20047;-76
2022/04/28 10:17:04;;;;;;;7.85;3.30;;;14.50;85.60;;;;;;4958254;28;20117;-76
2022/04/28 10:19:37;;;;;;;6.80;3.17;;;14.80;92.10;;;;;;4976449;28;20812;-77
2022/04/28 10:22:11;;;;;;;8.00;3.05;;;15.60;90.80;;;;;;4977094;28;20074;-77
2022/04/28 10:33:19;;;;;;;8.60;3.33;;;15.60;90.30;;;;;;4993151;28;20378;-76
2022/04/28 10:35:51;;;;;;;7.38;2.95;;;15.50;82.30;;;;;;4975214;28;20038;-76
2022/04/28 10:38:30;;;;;;;5.55;2.92;;;15.30;83.60;;;;;;4985397;28;20073;-77
2022/04/28 10:41:11;;;;;;;7.95;3.33;;;15.30;84.30;;;;;;4993854;28;20050;-76
2022/04/28 10:43:46;;;;;;;5.15;3.00;;;15.10;78.60;;;;;;4976999;28;20034;-76
2022/04/28 10:46:24;;;;;;;8.48;3.15;;;15.10;76.50;;;;;;4977021;28;20086;-76
2022/04/28 10:49:00;;;;;;;8.70;3.70;;;15.00;81.20;;;;;;4992668;28;20489;-76
2022/04/28 10:51:43;;;;;;;5.90;3.55;;;15.70;81.60;;;;;;4977049;28;20042;-76
2022/04/28 10:54:21;;;;;;;5.80;3.30;;;16.60;87.40;;;;;;4992801;28;20193;-77
2022/04/28 10:56:56;;;;;;;6.55;3.03;;;17.60;71.50;;;;;;4976847;28;20038;-77
2022/04/28 10:59:50;;;;;;;5.72;2.90;;;18.00;61.00;;;;;;4990126;28;20038;-77
2022/04/28 11:02:37;;;;;;;7.65;3.65;;;17.70;64.20;;;;;;4988086;28;20046;-77
2022/04/28 11:05:27;;;;;;;7.68;3.20;;;17.00;70.30;;;;;;4992589;28;20085;-77
2022/04/28 11:07:54;;;;;;;7.97;3.25;;;16.50;76.20;;;;;;4984155;28;20390;-76
2022/04/28 11:10:23;;;;;;;7.50;2.75;;;16.20;75.60;;;;;;4976630;28;20093;-76
2022/04/28 11:12:57;;;;;;;5.45;2.65;;;16.20;75.20;;;;;;4975200;28;20081;-76
2022/04/28 11:15:33;;;;;;;7.32;3.15;;;16.30;69.70;;;;;;4976077;28;20112;-76
2022/04/28 11:18:05;;;;;;;7.10;2.60;;;16.40;80.50;;;;;;4976745;28;20038;-77
2022/04/28 11:20:40;;;;;;;7.13;2.60;;;16.90;81.70;;;;;;4976563;28;20042;-77
2022/04/28 11:23:11;;;;;;;7.25;2.67;;;17.70;83.00;;;;;;4975399;28;20112;-77
2022/04/28 11:25:46;;;;;;;5.72;2.35;;;18.70;62.60;;;;;;4990984;28;20555;-77
2022/04/28 11:28:12;;;;;;;5.43;2.30;;;18.90;55.90;;;;;;4962018;28;20062;-77
2022/04/28 11:30:44;;;;;;;4.88;2.30;;;18.20;55.50;;;;;;4956943;28;20405;-76
2022/04/28 11:33:13;;;;;;;6.97;2.55;;;17.80;60.70;;;;;;4957243;28;20490;-76
2022/04/28 11:35:44;;;;;;;5.78;2.55;;;18.10;60.70;;;;;;4954009;28;20046;-76
2022/04/28 11:38:13;;;;;;;6.43;2.40;;;18.20;58.00;;;;;;4956688;28;20030;-76
2022/04/28 11:40:57;;;;;;;8.07;3.00;;;17.80;58.20;;;;;;4974416;28;20042;-76
2022/04/28 11:43:34;;;;;;;6.55;2.75;;;17.40;62.50;;;;;;4976062;28;20121;-76
2022/04/28 11:46:07;;;;;;;5.97;2.70;;;17.80;61.10;;;;;;4972739;28;20051;-76
2022/04/28 11:48:35;;;;;;;6.30;2.80;;;18.30;62.70;;;;;;4955937;28;20046;-76
2022/04/28 11:51:06;;;;;;;5.45;2.90;;;19.00;62.20;;;;;;4956472;28;20512;-76
2022/04/28 11:53:49;;;;;;;7.68;2.83;;;19.80;58.70;;;;;;4978745;28;20050;-76
2022/04/28 11:56:33;;;;;;;5.53;2.50;;;20.20;51.90;;;;;;4975550;28;20050;-76
2022/04/28 11:59:06;;;;;;;6.63;2.60;;;19.60;50.20;;;;;;4975404;28;20048;-76
2022/04/28 12:01:33;;;;;;;;;;;19.00;52.70;;;;;;4975789;28;20052;-76
2022/04/28 12:04:09;;;;;;;4.70;2.63;;;19.00;52.20;;;;;;4974896;28;19922;-76
2022/04/28 12:06:49;;;;;;;6.47;3.05;;;18.80;52.10;;;;;;4991657;28;20043;-76
2022/04/28 12:15:00;;;;;;;7.95;3.00;;;19.20;55.00;;;;;;4986989;28;20038;-76
2022/04/28 12:21:06;;;;;;;9.23;3.05;;;19.50;54.30;;;;;;4991650;28;20046;-76
2022/04/28 12:23:56;;;;;;;6.07;3.05;;;19.70;53.70;;;;;;4975426;28;20133;-76
2022/04/28 12:26:54;;;;;;;6.50;2.95;;;20.00;53.90;;;;;;5090981;27;20407;-76
2022/04/28 12:29:31;;;;;;;5.85;2.70;;;20.30;52.90;;;;;;5068570;28;20063;-77
2022/04/28 12:32:12;;;;;;;6.30;2.40;;;20.50;50.60;;;;;;5055664;28;20041;-76
2022/04/28 12:34:38;;;;;;;6.85;3.17;;;19.70;50.10;;;;;;5048315;28;20059;-76
2022/04/28 12:37:22;;;;;;;6.63;3.40;;;18.60;52.30;;;;;;5060451;28;20079;-76
2022/04/28 12:40:02;;;;;;;8.32;3.47;;;18.10;55.90;;;;;;5051362;28;20098;-77
2022/04/28 12:43:01;;;;;;;8.57;3.40;;;18.70;55.20;;;;;;5050500;28;20045;-76
2022/04/28 12:45:56;;;;;;;5.85;3.13;;;19.20;56.20;;;;;;5046341;28;20513;-76
2022/04/28 12:48:49;;;;;;;7.50;3.72;;;19.80;52.70;;;;;;5050774;28;20192;-76
2022/04/28 12:51:26;;;;;;;11.23;3.92;;;19.50;51.60;;;;;;5049305;28;20127;-76
2022/04/28 12:54:12;;;;;;;7.63;3.50;;;18.80;56.10;;;;;;5046462;28;20037;-76
2022/04/28 12:56:46;;;;;;;10.13;3.90;;;19.40;59.00;;;;;;5065300;28;20513;-76
2022/04/28 12:59:21;;;;;;;7.28;3.85;;;19.80;54.80;;;;;;5050482;28;20033;-76
2022/04/28 13:01:59;;;;;;;5.20;3.22;;;20.20;57.30;;;;;;5050788;28;20044;-76
2022/04/28 13:04:27;;;;;;;5.90;3.35;;;20.80;53.30;;;;;;5053856;28;20128;-76
2022/04/28 13:07:02;;;;;;;8.82;3.90;;;20.10;52.80;;;;;;5055895;28;20330;-76
2022/04/28 13:09:31;;;;;;;10.60;4.22;;;19.40;53.70;;;;;;5030154;28;20488;-76
2022/04/28 13:11:59;;;;;;;8.10;4.28;;;19.10;55.80;;;;;;5035273;28;20408;-76
2022/04/28 13:14:28;;;;;;;7.30;4.13;;;19.60;57.70;;;;;;5030021;28;20051;-76
2022/04/28 13:16:56;;;;;;;7.55;3.67;;;20.30;58.70;;;;;;5046687;28;20048;-76
2022/04/28 13:19:27;;;;;;;9.40;3.60;;;20.60;53.00;;;;;;5045747;28;20044;-76
2022/04/28 13:21:56;;;;;;;7.78;3.97;;;20.70;52.30;;;;;;5046288;28;20499;-75
2022/04/28 13:24:22;;;;;;;10.15;4.10;;;20.60;52.40;;;;;;5029918;28;20049;-76
2022/04/28 13:26:50;;;;;;;9.52;3.50;;;20.70;54.30;;;;;;5029753;28;20140;-76
2022/04/28 13:29:19;;;;;;;6.78;3.92;;;20.70;54.40;;;;;;5030295;28;20041;-76
2022/04/28 13:31:56;;;;;;;7.45;3.88;;;19.90;49.90;;;;;;5051512;28;20034;-76
2022/04/28 13:34:27;;;;;;;6.60;3.60;;;18.70;52.40;;;;;;5025989;28;20386;-76
2022/04/28 13:36:55;;;;;;;9.88;4.45;;;18.40;54.60;;;;;;5022522;28;20038;-76
2022/04/28 13:39:24;;;;;;;7.65;3.65;;;18.70;56.50;;;;;;5016269;28;20133;-76
2022/04/28 13:42:02;;;;;;;9.20;3.70;;;19.40;57.00;;;;;;5016289;28;20048;-76
2022/04/28 13:44:29;;;;;;;5.70;3.45;;;19.60;55.80;;;;;;5014770;28;20072;-76
2022/04/28 13:47:06;;;;;;;8.60;3.58;;;19.50;53.90;;;;;;5009235;28;20124;-76
2022/04/28 13:49:34;;;;;;;5.63;3.38;;;19.10;52.10;;;;;;5016253;28;20415;-76
2022/04/28 13:52:06;;;;;;;10.45;3.67;;;18.10;55.20;;;;;;5016409;28;20053;-76
2022/04/28 13:54:43;;;;;;;8.73;3.85;;;18.20;57.40;;;;;;5016318;28;20041;-76
2022/04/28 13:57:13;;;;;;;8.75;3.40;;;18.60;58.00;;;;;;5017155;28;20037;-76
2022/04/28 13:59:41;;;;;;;6.88;3.28;;;18.80;55.20;;;;;;5013783;28;20081;-76
2022/04/28 14:02:18;;;;;;;8.32;3.50;;;18.60;56.40;;;;;;5022246;28;20117;-76